createdAt,value
2022-12-04T00:00:10.592Z,70.32
2022-12-04T00:01:15.790Z,63.75
2022-12-04T00:02:18.803Z,59.75
2022-12-04T00:03:20.520Z,66.50
2022-12-04T00:04:22.784Z,68.90
2022-12-04T00:05:25.667Z,70.00
2022-12-04T00:06:28.755Z,62.88
2022-12-04T00:07:30.635Z,66.90
2022-12-04T00:08:32.984Z,55.28
2022-12-04T00:09:34.628Z,59.30
2022-12-04T00:10:42.616Z,51.95
2022-12-04T00:11:45.627Z,49.28
2022-12-04T00:12:47.868Z,50.40
2022-12-04T00:13:51.336Z,52.50
2022-12-04T00:15:23.768Z,52.03
2022-12-04T00:16:20.521Z,55.40
2022-12-04T00:17:22.210Z,54.45
2022-12-04T00:18:25.421Z,53.58
2022-12-04T00:19:28.653Z,51.22
2022-12-04T00:20:30.518Z,56.63
2022-12-04T00:21:33.008Z,58.78
2022-12-04T00:22:36.224Z,52.78
2022-12-04T00:23:38.961Z,53.00
2022-12-04T00:24:42.002Z,56.10
2022-12-04T00:25:49.596Z,48.53
2022-12-04T00:26:51.474Z,46.13
2022-12-04T00:27:53.304Z,53.42
2022-12-04T00:28:56.404Z,50.08
2022-12-04T00:29:58.515Z,53.10
2022-12-04T00:31:00.679Z,52.83
2022-12-04T00:32:03.335Z,46.10
2022-12-04T00:33:05.098Z,52.60
2022-12-04T00:34:08.303Z,52.22
2022-12-04T00:35:11.022Z,60.85
2022-12-04T00:36:15.128Z,56.08
2022-12-04T00:37:16.905Z,58.35
2022-12-04T00:38:18.666Z,67.35
2022-12-04T00:39:20.797Z,65.18
2022-12-04T00:40:22.560Z,65.72
2022-12-04T00:41:27.566Z,69.20
2022-12-04T00:42:29.625Z,67.80
2022-12-04T00:43:32.325Z,67.05
2022-12-04T00:44:34.253Z,63.70
2022-12-04T00:45:36.012Z,64.93
2022-12-04T00:46:39.588Z,64.05
2022-12-04T00:47:42.765Z,63.10
2022-12-04T00:48:45.218Z,66.68
2022-12-04T00:49:48.858Z,69.28
2022-12-04T00:50:50.610Z,59.28
2022-12-04T00:51:52.803Z,66.85
2022-12-04T00:52:55.495Z,69.65
2022-12-04T00:53:57.680Z,67.45
2022-12-04T00:54:59.339Z,70.10
2022-12-04T00:56:13.053Z,81.55
2022-12-04T00:57:14.839Z,71.60
2022-12-04T00:58:17.615Z,75.55
2022-12-04T00:59:19.581Z,69.43
2022-12-04T01:00:22.451Z,71.57
2022-12-04T01:01:27.947Z,77.30
2022-12-04T01:02:30.944Z,62.05
2022-12-04T01:03:38.371Z,64.43
2022-12-04T01:04:42.887Z,50.25
2022-12-04T01:05:48.228Z,49.50
2022-12-04T01:06:50.347Z,52.78
2022-12-04T01:07:55.387Z,52.78
2022-12-04T01:09:01.288Z,47.50
2022-12-04T01:10:04.656Z,49.80
2022-12-04T01:11:07.184Z,56.85
2022-12-04T01:12:09.232Z,52.92
2022-12-04T01:13:11.576Z,60.28
2022-12-04T01:14:16.042Z,64.13
2022-12-04T01:15:18.222Z,53.17
2022-12-04T01:16:32.666Z,53.67
2022-12-04T01:17:37.332Z,58.05
2022-12-04T01:18:39.603Z,59.38
2022-12-04T01:19:41.313Z,55.88
2022-12-04T01:20:51.911Z,58.17
2022-12-04T01:21:56.309Z,64.25
2022-12-04T01:22:59.793Z,66.88
2022-12-04T01:24:03.693Z,73.47
2022-12-04T01:25:09.282Z,64.32
2022-12-04T01:26:14.958Z,56.85
2022-12-04T01:27:17.669Z,62.78
2022-12-04T01:28:21.600Z,51.10
2022-12-04T01:29:24.028Z,49.63
2022-12-04T01:30:28.309Z,46.10
2022-12-04T01:31:30.598Z,45.58
2022-12-04T01:32:32.782Z,51.60
2022-12-04T01:33:36.734Z,53.08
2022-12-04T01:34:38.677Z,48.63
2022-12-04T01:35:41.298Z,51.78
2022-12-04T01:36:44.898Z,49.75
2022-12-04T01:37:46.610Z,48.83
2022-12-04T01:38:48.759Z,49.17
2022-12-04T01:39:50.468Z,53.47
2022-12-04T01:40:52.856Z,45.92
2022-12-04T01:41:54.795Z,51.90
2022-12-04T01:42:56.746Z,49.40
2022-12-04T01:44:21.698Z,40.70
2022-12-04T01:45:43.170Z,45.85
2022-12-04T01:46:49.387Z,45.33
2022-12-04T01:47:56.456Z,42.92
2022-12-04T01:48:59.203Z,48.20
2022-12-04T01:50:04.202Z,48.97
2022-12-04T01:51:29.511Z,55.97
2022-12-04T01:52:34.620Z,51.03
2022-12-04T01:53:43.277Z,55.00
2022-12-04T01:54:52.248Z,50.20
2022-12-04T01:55:55.765Z,49.80
2022-12-04T01:57:15.507Z,53.13
2022-12-04T01:58:23.730Z,52.40
2022-12-04T01:59:33.466Z,48.45
2022-12-04T02:00:35.341Z,53.05
2022-12-04T02:01:47.637Z,48.95
2022-12-04T02:02:49.742Z,49.63
2022-12-04T02:03:54.169Z,48.17
2022-12-04T02:04:57.186Z,45.97
2022-12-04T02:05:59.106Z,46.75
2022-12-04T02:07:02.550Z,51.70
2022-12-04T02:08:06.528Z,43.80
2022-12-04T02:09:20.465Z,51.67
2022-12-04T02:10:42.514Z,47.75
2022-12-04T02:12:05.143Z,56.72
2022-12-04T02:13:52.217Z,47.72
2022-12-04T02:15:15.987Z,48.65
2022-12-04T02:16:37.463Z,51.45
2022-12-04T02:17:44.121Z,45.80
2022-12-04T02:19:24.519Z,47.92
2022-12-04T02:20:35.672Z,57.22
2022-12-04T02:21:43.417Z,53.30
2022-12-04T02:23:26.017Z,52.15
2022-12-04T02:25:15.729Z,53.30
2022-12-04T02:26:44.580Z,50.67
2022-12-04T02:28:02.003Z,48.40
2022-12-04T02:29:03.800Z,57.10
2022-12-04T02:30:13.469Z,50.15
2022-12-04T02:31:26.855Z,47.30
2022-12-04T02:32:33.636Z,52.05
2022-12-04T02:33:46.241Z,52.67
2022-12-04T02:34:57.529Z,52.75
2022-12-04T02:36:11.607Z,52.55
2022-12-04T02:37:19.673Z,53.42
2022-12-04T02:38:27.205Z,56.08
2022-12-04T02:39:38.743Z,53.25
2022-12-04T02:40:54.758Z,52.90
2022-12-04T02:42:04.831Z,52.65
2022-12-04T02:43:17.915Z,60.33
2022-12-04T02:44:35.355Z,52.47
2022-12-04T02:45:46.201Z,51.45
2022-12-04T02:46:51.970Z,46.03
2022-12-04T02:47:56.402Z,44.90
2022-12-04T02:49:02.468Z,47.00
2022-12-04T02:50:12.825Z,50.38
2022-12-04T02:51:20.013Z,53.90
2022-12-04T02:52:28.150Z,47.95
2022-12-04T02:53:45.202Z,50.33
2022-12-04T02:54:54.829Z,48.45
2022-12-04T02:56:27.448Z,50.85
2022-12-04T02:57:35.785Z,47.15
2022-12-04T02:58:54.724Z,51.60
2022-12-04T03:00:01.377Z,48.25
2022-12-04T03:01:19.893Z,49.05
2022-12-04T03:02:33.415Z,49.33
2022-12-04T03:03:37.180Z,44.15
2022-12-04T03:04:39.880Z,51.67
2022-12-04T03:06:00.867Z,45.90
2022-12-04T03:07:11.662Z,48.67
2022-12-04T03:08:22.257Z,43.08
2022-12-04T03:09:29.209Z,47.85
2022-12-04T03:10:38.672Z,46.15
2022-12-04T03:11:45.609Z,46.35
2022-12-04T03:12:57.128Z,51.03
2022-12-04T03:14:07.428Z,48.03
2022-12-04T03:15:16.722Z,48.78
2022-12-04T03:16:31.151Z,42.13
2022-12-04T03:17:41.233Z,46.17
2022-12-04T03:19:00.578Z,55.63
2022-12-04T03:20:10.642Z,56.38
2022-12-04T03:21:20.624Z,61.55
2022-12-04T03:22:25.048Z,50.28
2022-12-04T03:23:40.697Z,47.67
2022-12-04T03:24:56.893Z,47.92
2022-12-04T03:26:18.412Z,43.92
2022-12-04T03:27:58.109Z,45.47
2022-12-04T03:29:24.028Z,50.20
2022-12-04T03:30:25.980Z,49.60
2022-12-04T03:31:49.272Z,51.13
2022-12-04T03:33:07.148Z,46.03
2022-12-04T03:34:13.159Z,53.15
2022-12-04T03:35:41.461Z,50.33
2022-12-04T03:36:57.707Z,47.95
2022-12-04T03:38:44.870Z,44.55
2022-12-04T03:40:03.701Z,55.65
2022-12-04T03:41:13.987Z,48.22
2022-12-04T03:42:33.428Z,52.53
2022-12-04T03:43:59.240Z,55.90
2022-12-04T03:45:03.455Z,56.50
2022-12-04T03:46:31.631Z,64.07
2022-12-04T03:47:45.595Z,63.95
2022-12-04T03:49:04.200Z,64.72
2022-12-04T03:50:35.802Z,59.45
2022-12-04T03:52:05.035Z,62.20
2022-12-04T03:53:50.849Z,63.90
2022-12-04T03:55:01.970Z,61.50
2022-12-04T03:56:29.024Z,55.05
2022-12-04T03:57:40.757Z,59.53
2022-12-04T03:58:48.680Z,46.13
2022-12-04T03:59:55.786Z,56.38
2022-12-04T04:01:01.912Z,44.40
2022-12-04T04:02:08.922Z,53.20
2022-12-04T04:03:16.488Z,51.92
2022-12-04T04:04:31.121Z,54.50
2022-12-04T04:05:36.829Z,49.63
2022-12-04T04:06:44.499Z,55.08
2022-12-04T04:07:55.465Z,46.63
2022-12-04T04:09:04.920Z,61.60
2022-12-04T04:10:14.550Z,54.28
2022-12-04T04:11:24.073Z,56.92
2022-12-04T04:12:31.308Z,52.97
2022-12-04T04:14:13.121Z,55.60
2022-12-04T04:15:36.020Z,51.90
2022-12-04T04:17:03.415Z,45.65
2022-12-04T04:18:24.317Z,48.35
2022-12-04T04:19:51.120Z,43.97
2022-12-04T04:21:15.638Z,54.22
2022-12-04T04:22:38.650Z,43.00
2022-12-04T04:24:05.639Z,41.95
2022-12-04T04:25:17.533Z,45.97
2022-12-04T04:26:24.373Z,50.67
2022-12-04T04:27:26.683Z,45.50
2022-12-04T04:28:38.608Z,45.55
2022-12-04T04:29:46.669Z,44.88
2022-12-04T04:30:52.755Z,46.65
2022-12-04T04:32:08.887Z,48.50
2022-12-04T04:33:16.694Z,50.95
2022-12-04T04:34:43.301Z,51.65
2022-12-04T04:36:06.388Z,42.72
2022-12-04T04:37:34.266Z,45.92
2022-12-04T04:39:11.316Z,42.70
2022-12-04T04:40:31.541Z,42.38
2022-12-04T04:41:42.412Z,44.50
2022-12-04T04:43:04.082Z,41.63
2022-12-04T04:44:17.876Z,50.28
2022-12-04T04:45:29.221Z,44.05
2022-12-04T04:46:40.133Z,43.35
2022-12-04T04:48:29.907Z,43.75
2022-12-04T04:49:34.083Z,39.38
2022-12-04T04:50:38.795Z,49.72
2022-12-04T04:51:43.747Z,43.78
2022-12-04T04:52:50.601Z,48.00
2022-12-04T04:53:56.643Z,48.25
2022-12-04T04:55:01.434Z,48.60
2022-12-04T04:56:07.045Z,56.05
2022-12-04T04:57:08.998Z,51.50
2022-12-04T04:58:17.221Z,46.22
2022-12-04T04:59:19.117Z,42.20
2022-12-04T05:00:23.193Z,45.03
2022-12-04T05:01:32.702Z,42.10
2022-12-04T05:02:35.038Z,44.05
2022-12-04T05:03:37.444Z,41.88
2022-12-04T05:04:40.265Z,48.67
2022-12-04T05:05:44.177Z,45.95
2022-12-04T05:06:46.351Z,38.60
2022-12-04T05:07:48.005Z,39.78
2022-12-04T05:08:50.044Z,39.38
2022-12-04T05:09:52.108Z,40.30
2022-12-04T05:10:54.065Z,40.30
2022-12-04T05:11:57.370Z,42.25
2022-12-04T05:13:00.826Z,40.92
2022-12-04T05:14:04.933Z,47.85
2022-12-04T05:15:10.364Z,46.95
2022-12-04T05:16:15.256Z,45.60
2022-12-04T05:17:17.415Z,48.38
2022-12-04T05:18:21.368Z,51.85
2022-12-04T05:19:42.026Z,42.47
2022-12-04T05:20:43.727Z,48.60
2022-12-04T05:21:45.569Z,61.83
2022-12-04T05:22:47.281Z,67.43
2022-12-04T05:23:53.435Z,65.00
2022-12-04T05:24:56.151Z,62.05
2022-12-04T05:26:02.452Z,55.40
2022-12-04T05:27:05.357Z,47.65
2022-12-04T05:28:07.223Z,54.80
2022-12-04T05:29:10.506Z,61.78
2022-12-04T05:30:13.267Z,56.08
2022-12-04T05:31:15.110Z,54.17
2022-12-04T05:32:16.782Z,50.78
2022-12-04T05:33:18.460Z,46.50
2022-12-04T05:34:20.867Z,51.50
2022-12-04T05:35:23.410Z,48.63
2022-12-04T05:36:26.378Z,47.30
2022-12-04T05:37:29.383Z,45.75
2022-12-04T05:38:35.036Z,44.30
2022-12-04T05:39:37.066Z,47.50
2022-12-04T05:40:43.156Z,50.47
2022-12-04T05:41:49.327Z,43.53
2022-12-04T05:42:51.405Z,51.03
2022-12-04T05:43:56.863Z,47.90
2022-12-04T05:44:58.667Z,47.47
2022-12-04T05:46:08.898Z,45.75
2022-12-04T05:47:16.406Z,44.97
2022-12-04T05:48:18.266Z,42.10
2022-12-04T05:49:22.669Z,44.90
2022-12-04T05:50:27.956Z,48.33
2022-12-04T05:51:31.150Z,46.20
2022-12-04T05:52:33.179Z,53.97
2022-12-04T05:53:39.520Z,47.58
2022-12-04T05:54:44.344Z,52.28
2022-12-04T05:55:58.438Z,45.58
2022-12-04T05:57:01.128Z,44.88
2022-12-04T05:58:05.504Z,42.85
2022-12-04T05:59:07.857Z,46.63
2022-12-04T06:00:13.778Z,46.08
2022-12-04T06:01:20.373Z,53.00
2022-12-04T06:02:22.896Z,42.05
2022-12-04T06:03:26.375Z,49.75
2022-12-04T06:04:29.519Z,48.15
2022-12-04T06:05:32.728Z,44.75
2022-12-04T06:06:37.437Z,49.75
2022-12-04T06:07:40.138Z,49.05
2022-12-04T06:08:42.155Z,46.53
2022-12-04T06:09:46.523Z,45.38
2022-12-04T06:10:48.396Z,50.50
2022-12-04T06:11:50.990Z,48.70
2022-12-04T06:12:58.004Z,49.05
2022-12-04T06:14:04.958Z,48.92
2022-12-04T06:15:08.997Z,46.88
2022-12-04T06:16:19.304Z,52.10
2022-12-04T06:17:21.688Z,46.88
2022-12-04T06:18:23.659Z,53.63
2022-12-04T06:19:25.645Z,50.65
2022-12-04T06:20:29.605Z,50.35
2022-12-04T06:21:33.615Z,52.72
2022-12-04T06:22:37.019Z,55.50
2022-12-04T06:23:38.618Z,56.33
2022-12-04T06:24:43.989Z,50.13
2022-12-04T06:25:49.099Z,54.88
2022-12-04T06:27:26.154Z,53.50
2022-12-04T06:28:20.510Z,51.80
2022-12-04T06:29:24.953Z,48.55
2022-12-04T06:30:26.626Z,51.25
2022-12-04T06:31:30.109Z,49.63
2022-12-04T06:32:32.775Z,50.88
2022-12-04T06:33:35.745Z,48.50
2022-12-04T06:34:41.467Z,49.13
2022-12-04T06:35:43.326Z,47.47
2022-12-04T06:36:50.482Z,50.83
2022-12-04T06:37:53.694Z,50.67
2022-12-04T06:38:59.949Z,52.60
2022-12-04T06:40:03.655Z,48.63
2022-12-04T06:41:26.454Z,40.72
2022-12-04T06:42:28.585Z,45.15
2022-12-04T06:43:31.242Z,45.55
2022-12-04T06:44:33.047Z,45.63
2022-12-04T06:45:35.316Z,45.53
2022-12-04T06:46:45.090Z,45.25
2022-12-04T06:47:48.785Z,45.85
2022-12-04T06:48:51.810Z,47.88
2022-12-04T06:49:54.234Z,45.20
2022-12-04T06:51:04.970Z,63.90
2022-12-04T06:52:06.563Z,63.63
2022-12-04T06:53:08.804Z,56.58
2022-12-04T06:54:11.332Z,64.72
2022-12-04T06:55:13.127Z,53.08
2022-12-04T06:56:18.512Z,49.78
2022-12-04T06:57:20.066Z,52.55
2022-12-04T06:58:23.048Z,48.65
2022-12-04T06:59:25.746Z,48.47
2022-12-04T07:00:29.859Z,44.40
2022-12-04T07:01:36.234Z,46.95
2022-12-04T07:02:39.601Z,41.25
2022-12-04T07:03:50.782Z,39.28
2022-12-04T07:04:57.622Z,40.50
2022-12-04T07:06:00.451Z,38.70
2022-12-04T07:07:02.471Z,37.63
2022-12-04T07:08:04.717Z,40.17
2022-12-04T07:09:13.684Z,41.78
2022-12-04T07:10:17.123Z,41.00
2022-12-04T07:11:20.819Z,41.30
2022-12-04T07:12:22.864Z,39.90
2022-12-04T07:13:24.856Z,42.28
2022-12-04T07:14:27.249Z,44.85
2022-12-04T07:15:29.114Z,43.10
2022-12-04T07:16:40.350Z,47.10
2022-12-04T07:17:44.602Z,43.28
2022-12-04T07:18:51.454Z,45.63
2022-12-04T07:19:53.324Z,50.75
2022-12-04T07:20:56.557Z,44.72
2022-12-04T07:21:59.718Z,48.90
2022-12-04T07:23:07.059Z,45.63
2022-12-04T07:24:15.942Z,48.00
2022-12-04T07:25:17.611Z,45.10
2022-12-04T07:26:20.846Z,46.15
2022-12-04T07:27:22.591Z,45.47
2022-12-04T07:28:26.327Z,48.42
2022-12-04T07:29:28.082Z,42.90
2022-12-04T07:30:29.840Z,43.47
2022-12-04T07:31:31.833Z,42.42
2022-12-04T07:32:33.508Z,46.88
2022-12-04T07:33:36.463Z,60.65
2022-12-04T07:34:38.861Z,45.20
2022-12-04T07:35:41.255Z,39.80
2022-12-04T07:36:43.223Z,48.90
2022-12-04T07:37:44.945Z,47.92
2022-12-04T07:38:47.501Z,46.40
2022-12-04T07:39:53.942Z,49.25
2022-12-04T07:40:57.115Z,50.13
2022-12-04T07:41:58.730Z,55.58
2022-12-04T07:43:00.403Z,54.22
2022-12-04T07:44:02.311Z,53.80
2022-12-04T07:45:05.703Z,66.57
2022-12-04T07:46:28.916Z,61.65
2022-12-04T07:47:33.162Z,50.78
2022-12-04T07:48:35.517Z,53.28
2022-12-04T07:49:38.257Z,56.22
2022-12-04T07:50:40.330Z,44.13
2022-12-04T07:51:44.596Z,61.83
2022-12-04T07:52:46.371Z,79.00
2022-12-04T07:53:50.823Z,60.75
2022-12-04T07:54:52.441Z,48.88
2022-12-04T07:55:57.722Z,48.38
2022-12-04T07:56:59.663Z,76.15
2022-12-04T07:58:01.643Z,92.03
2022-12-04T07:59:04.632Z,74.85
2022-12-04T08:00:07.288Z,73.38
2022-12-04T08:01:12.573Z,53.10
2022-12-04T08:02:16.110Z,43.63
2022-12-04T08:03:18.441Z,40.08
2022-12-04T08:04:21.958Z,42.65
2022-12-04T08:05:24.075Z,37.80
2022-12-04T08:06:28.108Z,41.63
2022-12-04T08:07:29.989Z,42.05
2022-12-04T08:08:33.122Z,41.15
2022-12-04T08:09:37.917Z,46.22
2022-12-04T08:10:42.721Z,41.40
2022-12-04T08:11:44.376Z,43.58
2022-12-04T08:12:48.144Z,42.85
2022-12-04T08:13:59.679Z,48.00
2022-12-04T08:15:02.877Z,45.47
2022-12-04T08:16:07.224Z,43.60
2022-12-04T08:17:16.601Z,44.65
2022-12-04T08:18:21.408Z,47.75
2022-12-04T08:19:23.967Z,42.78
2022-12-04T08:20:27.469Z,40.75
2022-12-04T08:21:36.852Z,39.70
2022-12-04T08:22:39.437Z,39.42
2022-12-04T08:23:46.203Z,37.05
2022-12-04T08:24:51.823Z,41.10
2022-12-04T08:25:54.100Z,38.67
2022-12-04T08:26:55.867Z,39.45
2022-12-04T08:27:58.193Z,35.17
2022-12-04T08:29:04.231Z,39.03
2022-12-04T08:30:11.184Z,44.72
2022-12-04T08:31:12.912Z,43.33
2022-12-04T08:32:14.981Z,37.38
2022-12-04T08:33:16.747Z,40.00
2022-12-04T08:34:19.016Z,34.58
2022-12-04T08:35:20.634Z,40.17
2022-12-04T08:36:23.207Z,41.25
2022-12-04T08:37:27.689Z,34.30
2022-12-04T08:38:30.549Z,36.97
2022-12-04T08:39:32.514Z,158.40
2022-12-04T08:40:34.399Z,146.05
2022-12-04T08:41:37.107Z,67.65
2022-12-04T08:42:40.309Z,57.75
2022-12-04T08:43:43.080Z,39.38
2022-12-04T08:44:46.608Z,40.42
2022-12-04T08:46:01.374Z,37.67
2022-12-04T08:47:03.612Z,42.75
2022-12-04T08:48:05.781Z,35.58
2022-12-04T08:49:07.521Z,36.38
2022-12-04T08:50:11.990Z,35.08
2022-12-04T08:51:24.280Z,35.63
2022-12-04T08:52:27.252Z,33.25
2022-12-04T08:53:31.693Z,38.67
2022-12-04T08:54:36.189Z,34.47
2022-12-04T08:55:38.577Z,34.47
2022-12-04T08:56:43.932Z,36.63
2022-12-04T08:57:47.595Z,39.42
2022-12-04T08:58:50.635Z,34.65
2022-12-04T08:59:53.299Z,37.85
2022-12-04T09:01:08.407Z,40.85
2022-12-04T09:02:13.472Z,37.83
2022-12-04T09:03:18.823Z,40.53
2022-12-04T09:04:22.052Z,44.25
2022-12-04T09:05:23.946Z,36.85
2022-12-04T09:06:26.847Z,48.30
2022-12-04T09:07:28.694Z,50.00
2022-12-04T09:08:31.426Z,58.90
2022-12-04T09:09:33.601Z,56.28
2022-12-04T09:10:37.379Z,42.20
2022-12-04T09:11:39.827Z,41.60
2022-12-04T09:12:41.483Z,38.88
2022-12-04T09:13:44.435Z,37.75
2022-12-04T09:14:46.186Z,40.30
2022-12-04T09:15:48.207Z,38.47
2022-12-04T09:16:50.173Z,39.55
2022-12-04T09:17:51.852Z,38.03
2022-12-04T09:18:54.579Z,38.85
2022-12-04T09:20:00.677Z,38.65
2022-12-04T09:21:06.883Z,35.88
2022-12-04T09:22:09.156Z,40.63
2022-12-04T09:23:11.287Z,42.22
2022-12-04T09:24:13.641Z,38.88
2022-12-04T09:25:15.292Z,41.85
2022-12-04T09:26:29.767Z,39.83
2022-12-04T09:27:36.495Z,38.92
2022-12-04T09:28:41.875Z,40.50
2022-12-04T09:29:45.948Z,40.50
2022-12-04T09:31:03.899Z,36.88
2022-12-04T09:32:05.958Z,36.40
2022-12-04T09:33:07.783Z,41.28
2022-12-04T09:34:10.931Z,36.67
2022-12-04T09:35:14.530Z,39.05
2022-12-04T09:36:17.713Z,35.90
2022-12-04T09:37:20.654Z,40.10
2022-12-04T09:38:22.657Z,37.03
2022-12-04T09:39:24.778Z,36.95
2022-12-04T09:40:38.355Z,39.63
2022-12-04T09:41:56.900Z,38.60
2022-12-04T09:43:04.122Z,37.95
2022-12-04T09:44:27.962Z,37.33
2022-12-04T09:45:42.638Z,35.45
2022-12-04T09:47:01.128Z,34.53
2022-12-04T09:48:03.956Z,31.23
2022-12-04T09:49:19.311Z,36.58
2022-12-04T09:50:23.074Z,36.70
2022-12-04T09:51:26.560Z,37.80
2022-12-04T09:52:36.645Z,33.47
2022-12-04T09:54:03.750Z,37.63
2022-12-04T09:55:11.787Z,38.47
2022-12-04T09:56:22.512Z,36.58
2022-12-04T09:57:49.844Z,32.47
2022-12-04T09:59:06.743Z,33.58
2022-12-04T10:00:15.175Z,36.35
2022-12-04T10:01:22.072Z,35.55
2022-12-04T10:02:33.698Z,41.70
2022-12-04T10:03:35.748Z,42.65
2022-12-04T10:04:39.456Z,50.17
2022-12-04T10:05:59.215Z,52.47
2022-12-04T10:07:11.199Z,40.33
2022-12-04T10:08:44.069Z,40.22
2022-12-04T10:10:05.048Z,35.00
2022-12-04T10:11:32.081Z,68.22
2022-12-04T10:12:40.850Z,35.25
2022-12-04T10:14:06.748Z,74.55
2022-12-04T10:16:05.087Z,49.78
2022-12-04T10:17:44.583Z,38.10
2022-12-04T10:19:14.071Z,59.55
2022-12-04T10:20:47.069Z,43.63
2022-12-04T10:22:01.206Z,107.00
2022-12-04T10:23:18.344Z,34.60
2022-12-04T10:24:47.832Z,34.38
2022-12-04T10:25:52.293Z,42.85
2022-12-04T10:27:00.318Z,37.75
2022-12-04T10:28:23.867Z,35.55
2022-12-04T10:29:32.889Z,32.25
2022-12-04T10:30:37.619Z,34.72
2022-12-04T10:31:40.530Z,40.60
2022-12-04T10:32:51.062Z,37.55
2022-12-04T10:34:02.993Z,35.40
2022-12-04T10:35:32.201Z,28.45
2022-12-04T10:36:36.094Z,36.40
2022-12-04T10:37:41.926Z,33.88
2022-12-04T10:39:01.730Z,34.25
2022-12-04T10:40:16.955Z,35.35
2022-12-04T10:41:30.175Z,34.88
2022-12-04T10:42:55.770Z,33.85
2022-12-04T10:43:58.493Z,36.03
2022-12-04T10:45:01.573Z,39.35
2022-12-04T10:46:03.775Z,37.88
2022-12-04T10:47:08.215Z,39.72
2022-12-04T10:48:23.300Z,34.17
2022-12-04T10:49:29.712Z,33.30
2022-12-04T10:50:31.707Z,31.30
2022-12-04T10:51:39.878Z,40.97
2022-12-04T10:52:42.498Z,53.67
2022-12-04T10:53:47.201Z,121.90
2022-12-04T10:54:58.861Z,72.20
2022-12-04T10:56:15.647Z,51.63
2022-12-04T10:57:18.538Z,41.90
2022-12-04T10:58:21.372Z,39.40
2022-12-04T10:59:25.178Z,32.42
2022-12-04T11:00:32.916Z,29.83
2022-12-04T11:01:36.731Z,30.42
2022-12-04T11:02:40.449Z,30.45
2022-12-04T11:03:47.268Z,31.25
2022-12-04T11:05:23.892Z,40.28
2022-12-04T11:06:27.385Z,29.42
2022-12-04T11:07:37.312Z,39.65
2022-12-04T11:08:44.479Z,45.50
2022-12-04T11:10:06.032Z,30.30
2022-12-04T11:11:15.524Z,30.63
2022-12-04T11:12:21.480Z,28.80
2022-12-04T11:13:26.183Z,29.73
2022-12-04T11:14:31.819Z,34.28
2022-12-04T11:15:56.249Z,31.77
2022-12-04T11:17:09.212Z,33.65
2022-12-04T11:18:21.619Z,30.65
2022-12-04T11:19:30.613Z,31.65
2022-12-04T11:20:32.838Z,43.38
2022-12-04T11:21:35.157Z,46.88
2022-12-04T11:22:49.612Z,39.10
2022-12-04T11:23:53.753Z,37.05
2022-12-04T11:24:59.086Z,39.95
2022-12-04T11:26:05.841Z,44.30
2022-12-04T11:27:23.714Z,40.10
2022-12-04T11:28:41.494Z,39.25
2022-12-04T11:29:49.861Z,36.83
2022-12-04T11:30:58.556Z,38.08
2022-12-04T11:32:08.274Z,32.95
2022-12-04T11:33:22.036Z,32.60
2022-12-04T11:34:32.278Z,31.90
2022-12-04T11:35:35.917Z,37.53
2022-12-04T11:36:42.243Z,41.15
2022-12-04T11:38:01.015Z,36.30
2022-12-04T11:39:29.285Z,35.90
2022-12-04T11:40:32.036Z,41.65
2022-12-04T11:41:34.560Z,40.53
2022-12-04T11:42:37.527Z,36.88
2022-12-04T11:43:48.903Z,36.50
2022-12-04T11:44:56.786Z,37.53
2022-12-04T11:46:07.353Z,45.30
2022-12-04T11:47:18.753Z,37.83
2022-12-04T11:48:22.846Z,38.83
2022-12-04T11:49:27.018Z,40.85
2022-12-04T11:50:57.753Z,36.17
2022-12-04T11:52:42.874Z,36.80
2022-12-04T11:54:29.146Z,34.30
2022-12-04T11:55:57.430Z,30.00
2022-12-04T11:57:07.365Z,35.25
2022-12-04T11:58:33.848Z,37.25
2022-12-04T12:00:24.235Z,32.95
2022-12-04T12:01:54.668Z,31.92
2022-12-04T12:03:02.886Z,31.55
2022-12-04T12:04:26.826Z,30.55
2022-12-04T12:05:37.647Z,32.30
2022-12-04T12:06:56.344Z,29.30
2022-12-04T12:08:23.627Z,30.73
2022-12-04T12:09:48.253Z,40.92
2022-12-04T12:11:03.757Z,40.55
2022-12-04T12:12:17.571Z,41.85
2022-12-04T12:13:50.119Z,42.20
2022-12-04T12:15:42.965Z,44.67
2022-12-04T12:17:03.979Z,37.75
2022-12-04T12:18:35.965Z,44.92
2022-12-04T12:20:19.208Z,43.05
2022-12-04T12:21:29.393Z,45.05
2022-12-04T12:22:58.612Z,42.22
2022-12-04T12:24:49.883Z,44.50
2022-12-04T12:26:14.328Z,44.25
2022-12-04T12:27:35.297Z,44.03
2022-12-04T12:28:45.438Z,47.22
2022-12-04T12:29:52.659Z,43.28
2022-12-04T12:31:37.715Z,44.03
2022-12-04T12:33:11.140Z,48.97
2022-12-04T12:34:34.752Z,50.75
2022-12-04T12:36:08.917Z,44.40
2022-12-04T12:37:38.666Z,45.28
2022-12-04T12:39:28.307Z,49.92
2022-12-04T12:40:40.492Z,46.60
2022-12-04T12:41:55.736Z,46.95
2022-12-04T12:43:32.613Z,52.58
2022-12-04T12:44:59.758Z,49.92
2022-12-04T12:46:33.294Z,56.63
2022-12-04T12:47:49.030Z,51.92
2022-12-04T12:49:06.190Z,52.28
2022-12-04T12:52:07.585Z,52.50
2022-12-04T12:53:17.620Z,53.72
2022-12-04T12:54:42.495Z,52.78
2022-12-04T12:55:52.767Z,47.60
2022-12-04T12:57:21.575Z,56.35
2022-12-04T12:58:40.242Z,47.55
2022-12-04T12:59:49.975Z,55.65
2022-12-04T13:01:27.500Z,49.72
2022-12-04T13:02:38.514Z,59.65
2022-12-04T13:03:55.647Z,59.45
2022-12-04T13:05:03.989Z,58.00
2022-12-04T13:06:23.647Z,70.78
2022-12-04T13:07:57.871Z,73.03
2022-12-04T13:09:26.843Z,70.03
2022-12-04T13:10:32.192Z,77.28
2022-12-04T13:11:38.773Z,84.30
2022-12-04T13:13:09.487Z,81.45
2022-12-04T13:14:18.100Z,80.80
2022-12-04T13:15:24.895Z,91.05
2022-12-04T13:16:54.464Z,89.18
2022-12-04T13:18:01.724Z,92.32
2022-12-04T13:19:15.884Z,102.22
2022-12-04T13:20:25.325Z,106.50
2022-12-04T13:21:33.106Z,107.22
2022-12-04T13:23:00.142Z,99.00
2022-12-04T13:24:26.856Z,118.82
2022-12-04T13:25:41.127Z,100.78
2022-12-04T13:27:03.912Z,111.28
2022-12-04T13:28:28.366Z,123.82
2022-12-04T13:30:03.128Z,128.68
2022-12-04T13:31:25.186Z,111.43
2022-12-04T13:32:45.884Z,120.03
2022-12-04T13:34:20.766Z,128.70
2022-12-04T13:35:49.353Z,132.50
2022-12-04T13:37:00.741Z,134.75
2022-12-04T13:38:53.711Z,127.40
2022-12-04T13:40:49.245Z,132.10
2022-12-04T13:42:05.626Z,132.80
2022-12-04T13:43:53.079Z,146.70
2022-12-04T13:45:03.039Z,131.45
2022-12-04T13:46:23.568Z,127.53
2022-12-04T13:47:37.248Z,127.80
2022-12-04T13:48:47.787Z,135.80
2022-12-04T13:49:52.392Z,143.77
2022-12-04T13:51:27.777Z,130.90
2022-12-04T13:52:44.090Z,139.65
2022-12-04T13:53:50.073Z,121.70
2022-12-04T13:55:02.378Z,133.18
2022-12-04T13:56:13.466Z,123.00
2022-12-04T13:57:22.893Z,124.30
2022-12-04T13:58:37.600Z,136.88
2022-12-04T13:59:43.842Z,146.95
2022-12-04T14:01:06.416Z,135.93
2022-12-04T14:02:25.923Z,132.48
2022-12-04T14:03:48.910Z,143.57
2022-12-04T14:05:14.496Z,172.93
2022-12-04T14:06:49.610Z,153.52
2022-12-04T14:08:07.200Z,144.65
2022-12-04T14:09:27.833Z,156.80
2022-12-04T14:10:34.440Z,149.60
2022-12-04T14:11:50.730Z,146.38
2022-12-04T14:13:02.652Z,164.05
2022-12-04T14:14:08.099Z,167.38
2022-12-04T14:15:39.047Z,145.75
2022-12-04T14:16:42.729Z,146.30
2022-12-04T14:17:57.350Z,173.13
2022-12-04T14:19:03.409Z,168.20
2022-12-04T14:20:25.958Z,162.25
2022-12-04T14:21:51.277Z,158.70
2022-12-04T14:22:56.790Z,131.07
2022-12-04T14:24:00.924Z,171.95
2022-12-04T14:25:24.176Z,177.25
2022-12-04T14:27:03.614Z,170.43
2022-12-04T14:28:06.998Z,153.70
2022-12-04T14:29:30.028Z,171.88
2022-12-04T14:30:38.623Z,163.70
2022-12-04T14:31:42.481Z,141.60
2022-12-04T14:32:47.854Z,163.43
2022-12-04T14:33:53.654Z,170.00
2022-12-04T14:34:58.873Z,178.75
2022-12-04T14:36:08.931Z,184.25
2022-12-04T14:37:34.267Z,159.10
2022-12-04T14:38:38.728Z,170.77
2022-12-04T14:39:47.752Z,169.70
2022-12-04T14:40:55.294Z,177.73
2022-12-04T14:42:34.436Z,180.98
2022-12-04T14:43:47.755Z,181.55
2022-12-04T14:44:59.430Z,170.98
2022-12-04T14:46:33.377Z,184.75
2022-12-04T14:48:12.873Z,165.05
2022-12-04T14:49:31.602Z,168.02
2022-12-04T14:51:10.142Z,170.52
2022-12-04T14:52:39.182Z,140.07
2022-12-04T14:54:04.717Z,181.32
2022-12-04T14:55:25.909Z,155.82
2022-12-04T14:56:53.667Z,166.75
2022-12-04T14:58:31.582Z,169.07
2022-12-04T14:59:51.973Z,160.32
2022-12-04T15:00:59.673Z,182.27
2022-12-04T15:02:03.479Z,180.48
2022-12-04T15:03:13.397Z,194.00
2022-12-04T15:04:35.885Z,163.68
2022-12-04T15:05:40.641Z,145.50